createdAt,value
2023-02-08T00:01:18.248Z,5.70
2023-02-08T00:03:46.664Z,5.13
2023-02-08T00:06:15.250Z,4.43
2023-02-08T00:08:43.486Z,5.57
2023-02-08T00:11:12.165Z,5.70
2023-02-08T00:13:42.277Z,7.00
2023-02-08T00:16:12.367Z,5.50
2023-02-08T00:18:40.817Z,5.97
2023-02-08T00:21:10.103Z,6.13
2023-02-08T00:23:38.341Z,7.03
2023-02-08T00:26:07.195Z,5.60
2023-02-08T00:28:35.471Z,5.67
2023-02-08T00:31:03.797Z,4.80
2023-02-08T00:33:33.425Z,4.30
2023-02-08T00:36:02.046Z,4.80
2023-02-08T00:38:30.571Z,5.30
2023-02-08T00:40:59.001Z,4.93
2023-02-08T00:43:27.311Z,5.43
2023-02-08T00:45:56.511Z,5.33
2023-02-08T00:48:24.793Z,4.63
2023-02-08T00:51:02.028Z,4.20
2023-02-08T00:53:30.531Z,4.30
2023-02-08T00:55:59.115Z,4.67
2023-02-08T00:58:27.296Z,5.07
2023-02-08T01:00:55.622Z,4.10
2023-02-08T01:03:24.478Z,4.20
2023-02-08T01:05:53.025Z,4.93
2023-02-08T01:08:22.656Z,4.53
2023-02-08T01:10:50.942Z,4.03
2023-02-08T01:13:19.232Z,4.10
2023-02-08T01:15:47.460Z,3.90
2023-02-08T01:18:15.730Z,5.40
2023-02-08T01:20:43.954Z,4.63
2023-02-08T01:23:12.452Z,3.47
2023-02-08T01:25:42.491Z,4.37
2023-02-08T01:28:10.696Z,5.10
2023-02-08T01:30:39.427Z,4.60
2023-02-08T01:33:07.938Z,4.20
2023-02-08T01:35:39.480Z,4.50
2023-02-08T01:38:07.828Z,5.27
2023-02-08T01:40:36.105Z,4.03
2023-02-08T01:43:05.661Z,4.77
2023-02-08T01:45:33.922Z,4.50
2023-02-08T01:48:06.191Z,4.43
2023-02-08T01:50:37.076Z,4.67
2023-02-08T01:53:05.948Z,4.03
2023-02-08T01:55:36.611Z,4.30
2023-02-08T01:58:08.168Z,3.80
2023-02-08T02:00:36.564Z,4.60
2023-02-08T02:03:06.275Z,4.07
2023-02-08T02:05:36.515Z,3.80
2023-02-08T02:08:05.139Z,3.50
2023-02-08T02:10:34.615Z,3.60
2023-02-08T02:13:04.933Z,3.73
2023-02-08T02:15:34.535Z,4.60
2023-02-08T02:18:03.096Z,3.60
2023-02-08T02:20:38.234Z,4.10
2023-02-08T02:23:22.708Z,3.67
2023-02-08T02:26:02.157Z,3.37
2023-02-08T02:28:42.653Z,3.03
2023-02-08T02:31:40.915Z,3.30
2023-02-08T02:34:12.073Z,4.13
2023-02-08T02:36:46.442Z,3.83
2023-02-08T02:39:19.702Z,2.90
2023-02-08T02:42:12.112Z,3.40
2023-02-08T02:44:42.256Z,3.43
2023-02-08T02:47:12.545Z,3.60
2023-02-08T02:49:48.289Z,4.00
2023-02-08T02:52:18.486Z,4.33
2023-02-08T02:54:49.402Z,3.17
2023-02-08T02:57:18.897Z,2.70
2023-02-08T02:59:47.743Z,3.90
2023-02-08T03:02:16.179Z,3.87
2023-02-08T03:04:54.274Z,4.13
2023-02-08T03:07:37.431Z,2.80
2023-02-08T03:10:09.647Z,3.30
2023-02-08T03:12:41.732Z,2.43
2023-02-08T03:15:16.914Z,2.90
2023-02-08T03:17:50.400Z,2.90
2023-02-08T03:20:23.502Z,3.20
2023-02-08T03:22:59.005Z,3.50
2023-02-08T03:25:31.169Z,2.90
2023-02-08T03:28:03.424Z,3.13
2023-02-08T03:30:34.777Z,2.60
2023-02-08T03:33:04.895Z,3.00
2023-02-08T03:35:36.401Z,2.67
2023-02-08T03:38:06.689Z,3.10
2023-02-08T03:40:38.535Z,2.47
2023-02-08T03:43:09.856Z,2.73
2023-02-08T03:45:40.355Z,3.43
2023-02-08T03:48:09.889Z,2.97
2023-02-08T03:50:41.228Z,3.37
2023-02-08T03:53:09.957Z,3.67
2023-02-08T03:55:39.482Z,2.60
2023-02-08T03:58:09.943Z,3.07
2023-02-08T04:00:41.055Z,2.77
2023-02-08T04:03:12.458Z,2.87
2023-02-08T04:05:42.189Z,3.60
2023-02-08T04:08:10.496Z,3.37
2023-02-08T04:10:38.850Z,3.40
2023-02-08T04:13:07.278Z,3.27
2023-02-08T04:15:35.659Z,3.67
2023-02-08T04:18:03.886Z,2.93
2023-02-08T04:20:32.071Z,2.47
2023-02-08T04:23:01.673Z,3.00
2023-02-08T04:25:29.928Z,2.93
2023-02-08T04:27:58.247Z,3.30
2023-02-08T04:30:26.506Z,3.00
2023-02-08T04:32:54.710Z,3.80
2023-02-08T04:35:23.099Z,3.40
2023-02-08T04:37:51.355Z,3.87
2023-02-08T04:40:20.986Z,3.50
2023-02-08T04:42:49.238Z,3.30
2023-02-08T04:45:17.581Z,2.83
2023-02-08T04:47:46.343Z,3.07
2023-02-08T04:50:14.590Z,3.30
2023-02-08T04:52:42.802Z,3.03
2023-02-08T04:55:11.047Z,3.20
2023-02-08T04:57:40.550Z,3.23
2023-02-08T05:00:09.473Z,3.77
2023-02-08T05:02:37.627Z,3.97
2023-02-08T05:05:05.985Z,4.07
2023-02-08T05:07:34.327Z,3.10
2023-02-08T05:10:02.611Z,3.37
2023-02-08T05:12:31.010Z,3.60
2023-02-08T05:15:00.619Z,3.27
2023-02-08T05:17:28.815Z,3.63
2023-02-08T05:19:57.444Z,3.80
2023-02-08T05:22:25.714Z,3.03
2023-02-08T05:24:53.969Z,3.47
2023-02-08T05:27:22.247Z,3.43
2023-02-08T05:29:50.439Z,3.40
2023-02-08T05:32:20.268Z,2.70
2023-02-08T05:34:48.847Z,2.80
2023-02-08T05:37:17.083Z,3.27
2023-02-08T05:39:45.272Z,3.43
2023-02-08T05:42:13.512Z,3.80
2023-02-08T05:44:41.761Z,3.50
2023-02-08T05:47:09.938Z,4.17
2023-02-08T05:49:39.529Z,3.77
2023-02-08T05:52:07.896Z,3.40
2023-02-08T05:54:36.480Z,3.40
2023-02-08T05:57:04.696Z,2.80
2023-02-08T05:59:32.864Z,3.30
2023-02-08T06:02:01.344Z,3.63
2023-02-08T06:04:29.660Z,3.10
2023-02-08T06:06:59.392Z,2.97
2023-02-08T06:09:27.698Z,3.37
2023-02-08T06:11:55.927Z,3.50
2023-02-08T06:14:24.203Z,3.53
2023-02-08T06:16:52.586Z,3.23
2023-02-08T06:19:20.839Z,3.53
2023-02-08T06:21:49.156Z,4.17
2023-02-08T06:24:18.816Z,3.63
2023-02-08T06:26:47.101Z,3.60
2023-02-08T06:29:15.374Z,4.03
2023-02-08T06:31:43.797Z,3.43
2023-02-08T06:34:12.113Z,3.83
2023-02-08T06:36:40.701Z,4.07
2023-02-08T06:39:09.076Z,3.33
2023-02-08T06:41:39.077Z,4.10
2023-02-08T06:44:07.591Z,4.50
2023-02-08T06:46:35.804Z,4.67
2023-02-08T06:49:04.097Z,4.00
2023-02-08T06:51:32.304Z,3.30
2023-02-08T06:54:00.613Z,4.33
2023-02-08T06:56:28.936Z,5.00
2023-02-08T06:58:59.558Z,4.33
2023-02-08T07:01:28.979Z,4.30
2023-02-08T07:03:57.218Z,4.30
2023-02-08T07:06:25.836Z,5.17
2023-02-08T07:08:54.075Z,4.00
2023-02-08T07:11:22.890Z,4.57
2023-02-08T07:13:51.634Z,4.30
2023-02-08T07:16:21.561Z,4.20
2023-02-08T07:18:50.068Z,3.67
2023-02-08T07:21:18.309Z,4.57
2023-02-08T07:23:46.548Z,3.17
2023-02-08T07:26:15.729Z,4.10
2023-02-08T07:28:44.266Z,5.03
2023-02-08T07:31:14.007Z,4.43
2023-02-08T07:33:43.858Z,5.10
2023-02-08T07:36:12.420Z,4.43
2023-02-08T07:38:40.856Z,3.70
2023-02-08T07:41:10.047Z,3.17
2023-02-08T07:43:38.604Z,3.57
2023-02-08T07:46:09.033Z,3.47
2023-02-08T07:48:40.140Z,2.83
2023-02-08T07:51:10.427Z,3.27
2023-02-08T07:53:49.702Z,3.70
2023-02-08T07:56:20.663Z,3.60
2023-02-08T07:58:48.959Z,4.27
2023-02-08T08:01:22.351Z,3.70
2023-02-08T08:03:51.666Z,3.73
2023-02-08T08:06:21.853Z,3.57
2023-02-08T08:08:50.178Z,3.60
2023-02-08T08:11:18.948Z,3.30
2023-02-08T08:13:53.459Z,3.40
2023-02-08T08:16:22.482Z,4.30
2023-02-08T08:18:51.651Z,3.97
2023-02-08T08:21:22.264Z,3.83
2023-02-08T08:23:50.500Z,3.20
2023-02-08T08:26:20.220Z,3.70
2023-02-08T08:28:50.637Z,3.23
2023-02-08T08:31:20.787Z,3.43
2023-02-08T08:33:49.576Z,5.47
2023-02-08T08:36:18.434Z,3.63
2023-02-08T08:38:48.067Z,3.20
2023-02-08T08:41:18.665Z,3.90
2023-02-08T08:43:47.032Z,4.20
2023-02-08T08:46:23.718Z,6.00
2023-02-08T08:48:52.881Z,3.30
2023-02-08T08:51:21.452Z,3.67
2023-02-08T08:54:04.262Z,4.50
2023-02-08T08:56:32.828Z,4.20
2023-02-08T08:59:08.434Z,3.57
2023-02-08T09:01:36.757Z,3.20
2023-02-08T09:04:05.181Z,3.27
2023-02-08T09:06:33.417Z,3.43
2023-02-08T09:09:04.824Z,3.37
2023-02-08T09:11:33.514Z,4.10
2023-02-08T09:14:08.255Z,3.67
2023-02-08T09:16:42.711Z,2.73
2023-02-08T09:19:12.173Z,3.47
2023-02-08T09:21:41.360Z,3.67
2023-02-08T09:24:11.072Z,3.63
2023-02-08T09:26:39.529Z,4.20
2023-02-08T09:29:15.603Z,4.40
2023-02-08T09:31:44.035Z,4.40
2023-02-08T09:34:12.395Z,4.50
2023-02-08T09:36:41.982Z,5.07
2023-02-08T09:39:14.073Z,3.10
2023-02-08T09:42:00.037Z,4.30
2023-02-08T09:44:33.285Z,3.40
2023-02-08T09:47:05.538Z,4.00
2023-02-08T09:49:36.494Z,3.70
2023-02-08T09:52:06.954Z,4.83
2023-02-08T09:54:38.544Z,5.13
2023-02-08T09:57:13.693Z,4.40
2023-02-08T09:59:42.700Z,3.67
2023-02-08T10:02:16.628Z,3.50
2023-02-08T10:04:53.303Z,3.77
2023-02-08T10:07:21.560Z,3.50
2023-02-08T10:09:51.153Z,2.73
2023-02-08T10:12:25.538Z,3.00
2023-02-08T10:15:04.233Z,4.37
2023-02-08T10:17:49.249Z,4.40
2023-02-08T10:20:26.910Z,4.80
2023-02-08T10:22:59.630Z,3.97
2023-02-08T10:25:35.091Z,3.47
2023-02-08T10:28:18.075Z,5.03
2023-02-08T10:30:50.910Z,3.50
2023-02-08T10:33:22.008Z,3.90
2023-02-08T10:35:54.952Z,3.43
2023-02-08T10:38:37.168Z,3.17
2023-02-08T10:41:25.567Z,4.03
2023-02-08T10:43:58.508Z,5.40
2023-02-08T10:46:31.872Z,3.53
2023-02-08T10:49:11.435Z,4.87
2023-02-08T10:51:40.013Z,3.87
2023-02-08T10:54:13.221Z,3.30
2023-02-08T10:56:50.205Z,3.60
2023-02-08T10:59:21.205Z,4.60
2023-02-08T11:01:53.175Z,3.53
2023-02-08T11:04:21.891Z,5.43
2023-02-08T11:06:57.544Z,2.90
2023-02-08T11:09:34.695Z,5.83
2023-02-08T11:12:07.124Z,5.67
2023-02-08T11:14:46.604Z,4.73
2023-02-08T11:17:28.480Z,5.60
2023-02-08T11:19:58.621Z,4.97
2023-02-08T11:22:31.178Z,6.53
2023-02-08T11:25:00.805Z,4.63
2023-02-08T11:27:35.486Z,6.00
2023-02-08T11:30:18.602Z,4.33
2023-02-08T11:32:48.120Z,4.90
2023-02-08T11:35:22.391Z,5.07
2023-02-08T11:37:56.204Z,3.50
2023-02-08T11:40:26.542Z,1.57
2023-02-08T11:42:58.504Z,6.00
2023-02-08T11:45:28.014Z,5.20
2023-02-08T11:47:59.200Z,2.03
2023-02-08T11:50:28.908Z,5.80
2023-02-08T11:52:59.352Z,6.50
2023-02-08T11:55:28.837Z,3.63
2023-02-08T11:58:00.084Z,5.30
2023-02-08T12:00:29.903Z,4.57
2023-02-08T12:03:00.633Z,4.00
2023-02-08T12:05:33.786Z,6.60
2023-02-08T12:08:06.673Z,4.03
2023-02-08T12:10:47.549Z,7.00
2023-02-08T12:13:33.226Z,3.97
2023-02-08T12:16:08.669Z,4.00
2023-02-08T12:18:45.500Z,6.67
2023-02-08T12:21:16.692Z,6.37
2023-02-08T12:23:49.396Z,7.80
2023-02-08T12:26:26.534Z,7.93
2023-02-08T12:29:05.770Z,3.33
2023-02-08T12:31:41.053Z,1.90
2023-02-08T12:34:12.698Z,2.00
2023-02-08T12:37:12.449Z,2.70
2023-02-08T12:40:04.537Z,2.00
2023-02-08T12:42:38.446Z,1.60
2023-02-08T12:45:17.205Z,1.50
2023-02-08T12:48:04.143Z,1.43
2023-02-08T12:50:35.977Z,1.37
2023-02-08T12:53:05.608Z,1.90
2023-02-08T12:55:36.411Z,1.37
2023-02-08T12:58:07.958Z,1.30
2023-02-08T13:00:39.415Z,1.50
2023-02-08T13:03:12.222Z,1.80
2023-02-08T13:05:50.761Z,1.57
2023-02-08T13:08:31.368Z,1.30
2023-02-08T13:11:17.741Z,1.43
2023-02-08T13:13:51.041Z,1.13
2023-02-08T13:16:34.903Z,1.37
2023-02-08T13:19:13.114Z,1.53
2023-02-08T13:21:43.781Z,2.20
2023-02-08T13:24:18.754Z,1.40
2023-02-08T13:26:47.214Z,1.40
2023-02-08T13:29:19.404Z,1.83
2023-02-08T13:31:51.888Z,2.63
2023-02-08T13:34:24.656Z,1.70
2023-02-08T13:36:56.036Z,3.27
2023-02-08T13:39:30.528Z,4.50
2023-02-08T13:41:58.982Z,4.63
2023-02-08T13:44:31.875Z,4.07
2023-02-08T13:47:01.748Z,6.80
2023-02-08T13:49:53.405Z,2.63
2023-02-08T13:52:47.932Z,4.60
2023-02-08T13:55:42.983Z,6.23
2023-02-08T13:58:26.554Z,6.10
2023-02-08T14:01:08.368Z,6.10
2023-02-08T14:03:38.223Z,6.63
2023-02-08T14:06:07.730Z,5.27
2023-02-08T14:08:42.461Z,7.80
2023-02-08T14:11:15.761Z,3.00
2023-02-08T14:13:48.260Z,5.07
2023-02-08T14:16:30.100Z,6.00
2023-02-08T14:19:01.045Z,4.43
2023-02-08T14:21:33.892Z,6.10
2023-02-08T14:24:03.509Z,4.90
2023-02-08T14:26:32.097Z,5.80
2023-02-08T14:29:01.683Z,5.97
2023-02-08T14:31:43.349Z,5.50
2023-02-08T14:34:25.439Z,6.07
2023-02-08T14:37:00.992Z,7.07
2023-02-08T14:39:30.038Z,5.77
2023-02-08T14:42:05.470Z,5.23
2023-02-08T14:44:54.888Z,3.90
2023-02-08T14:47:42.762Z,4.00
2023-02-08T14:50:17.582Z,4.20
2023-02-08T14:52:53.161Z,4.33
2023-02-08T14:55:26.593Z,3.90
2023-02-08T14:57:56.087Z,4.57
2023-02-08T15:00:26.016Z,4.30
2023-02-08T15:02:55.286Z,4.20
2023-02-08T15:05:26.603Z,4.97
2023-02-08T15:07:55.731Z,4.23
2023-02-08T15:10:25.830Z,5.00
2023-02-08T15:12:55.106Z,3.63
2023-02-08T15:15:25.716Z,4.10
2023-02-08T15:17:57.311Z,3.97
2023-02-08T15:20:28.384Z,3.00
2023-02-08T15:23:03.506Z,3.63
2023-02-08T15:25:32.535Z,3.97
2023-02-08T15:28:01.645Z,3.53
2023-02-08T15:30:32.296Z,3.60
2023-02-08T15:33:01.466Z,3.60
2023-02-08T15:35:33.172Z,3.70
2023-02-08T15:38:01.453Z,4.40
2023-02-08T15:40:30.814Z,3.60
2023-02-08T15:43:04.516Z,3.73
2023-02-08T15:45:39.336Z,3.23
2023-02-08T15:48:08.418Z,3.10
2023-02-08T15:50:38.241Z,3.70
2023-02-08T15:53:09.350Z,2.73
2023-02-08T15:55:41.435Z,3.33
2023-02-08T15:58:10.811Z,4.00
2023-02-08T16:00:39.571Z,4.43
2023-02-08T16:03:10.106Z,3.53
2023-02-08T16:05:40.137Z,3.67
2023-02-08T16:08:09.240Z,4.40
2023-02-08T16:10:42.743Z,4.70
2023-02-08T16:13:16.828Z,4.53
2023-02-08T16:15:46.304Z,3.90
2023-02-08T16:18:33.101Z,4.00
2023-02-08T16:21:03.982Z,3.90
2023-02-08T16:23:33.099Z,4.70
2023-02-08T16:26:12.367Z,3.83
2023-02-08T16:28:40.954Z,4.43
2023-02-08T16:31:09.695Z,5.80
2023-02-08T16:33:39.597Z,5.57
2023-02-08T16:36:09.883Z,4.23
2023-02-08T16:38:38.137Z,4.90
2023-02-08T16:41:14.517Z,4.43
2023-02-08T16:43:43.983Z,5.93
2023-02-08T16:46:21.135Z,5.00
2023-02-08T16:48:53.767Z,4.53
2023-02-08T16:51:27.821Z,4.80
2023-02-08T16:53:57.741Z,5.07
2023-02-08T16:56:28.568Z,4.90
2023-02-08T16:58:56.846Z,5.37
2023-02-08T17:01:25.190Z,5.20
2023-02-08T17:03:55.842Z,5.03
2023-02-08T17:06:29.361Z,4.27
2023-02-08T17:08:57.892Z,6.63
2023-02-08T17:11:26.207Z,7.90
2023-02-08T17:13:54.686Z,6.60
2023-02-08T17:16:23.794Z,7.00
2023-02-08T17:18:52.366Z,8.20
2023-02-08T17:21:20.634Z,7.70
2023-02-08T17:23:50.806Z,6.77
2023-02-08T17:26:22.249Z,7.27
2023-02-08T17:28:51.302Z,6.17
2023-02-08T17:31:20.788Z,6.03
2023-02-08T17:33:50.179Z,6.67
2023-02-08T17:36:19.327Z,6.90
2023-02-08T17:38:49.387Z,6.23
2023-02-08T17:41:20.900Z,8.30
2023-02-08T17:43:52.206Z,6.90
2023-02-08T17:46:21.359Z,6.37
2023-02-08T17:48:49.909Z,6.60
2023-02-08T17:51:19.471Z,7.40
2023-02-08T17:53:48.242Z,8.50
2023-02-08T17:56:18.083Z,5.57
2023-02-08T17:58:51.326Z,6.80
2023-02-08T18:01:22.719Z,7.40
2023-02-08T18:03:51.550Z,9.13
2023-02-08T18:06:19.982Z,9.67
2023-02-08T18:08:48.658Z,9.20
2023-02-08T18:11:17.975Z,8.80
2023-02-08T18:13:48.172Z,9.07
2023-02-08T18:16:17.616Z,8.97
2023-02-08T18:18:46.269Z,9.27
2023-02-08T18:21:15.891Z,10.70
2023-02-08T18:23:44.946Z,8.10
2023-02-08T18:26:14.774Z,7.30
2023-02-08T18:28:46.194Z,7.97
2023-02-08T18:31:16.765Z,5.83
2023-02-08T18:33:45.668Z,4.70
2023-02-08T18:36:15.851Z,5.07
2023-02-08T18:38:46.466Z,5.70
2023-02-08T18:41:15.670Z,5.33
2023-02-08T18:43:43.943Z,5.70
2023-02-08T18:46:14.285Z,6.87
2023-02-08T18:48:44.620Z,6.93
2023-02-08T18:51:14.485Z,6.30
2023-02-08T18:53:43.634Z,7.70
2023-02-08T18:56:12.688Z,8.10
2023-02-08T18:58:40.982Z,9.03
2023-02-08T19:01:09.771Z,8.40
2023-02-08T19:03:38.116Z,9.03
2023-02-08T19:06:09.397Z,9.00
2023-02-08T19:08:37.869Z,9.00
2023-02-08T19:11:06.404Z,9.17
2023-02-08T19:13:35.508Z,8.73
2023-02-08T19:16:03.849Z,9.40
2023-02-08T19:18:33.533Z,5.47
2023-02-08T19:21:04.641Z,7.60
2023-02-08T19:23:34.537Z,8.10
2023-02-08T19:26:03.547Z,7.67
2023-02-08T19:28:33.587Z,7.50
2023-02-08T19:31:06.425Z,7.43
2023-02-08T19:33:34.697Z,8.37
2023-02-08T19:36:08.227Z,9.30
2023-02-08T19:38:37.934Z,6.90
2023-02-08T19:41:06.753Z,6.33
2023-02-08T19:43:35.168Z,7.30
2023-02-08T19:46:03.488Z,7.50
2023-02-08T19:48:31.713Z,7.50
2023-02-08T19:51:00.536Z,8.40
2023-02-08T19:53:28.989Z,6.53
2023-02-08T19:55:59.389Z,7.20
2023-02-08T19:58:27.749Z,7.07
2023-02-08T20:00:56.813Z,7.27
2023-02-08T20:03:25.473Z,6.60
2023-02-08T20:06:00.208Z,7.67
2023-02-08T20:08:28.460Z,5.20
2023-02-08T20:10:57.017Z,7.33
2023-02-08T20:13:26.658Z,5.23
2023-02-08T20:15:59.752Z,4.30
2023-02-08T20:18:27.983Z,5.43
2023-02-08T20:21:02.781Z,4.40
2023-02-08T20:23:31.393Z,3.90
2023-02-08T20:26:06.602Z,3.17
2023-02-08T20:28:36.270Z,3.17
2023-02-08T20:31:07.994Z,2.73
2023-02-08T20:33:36.342Z,3.30
2023-02-08T20:36:11.537Z,2.83
2023-02-08T20:38:40.011Z,2.90
2023-02-08T20:41:09.540Z,4.70
2023-02-08T20:43:39.345Z,4.60
2023-02-08T20:46:08.104Z,1.80
2023-02-08T20:48:36.571Z,2.80
2023-02-08T20:51:05.530Z,3.47
2023-02-08T20:53:33.785Z,3.90
2023-02-08T20:56:02.139Z,3.33
2023-02-08T20:58:30.411Z,3.63
2023-02-08T21:01:00.168Z,3.70
2023-02-08T21:03:28.468Z,3.43
2023-02-08T21:05:56.697Z,4.57
2023-02-08T21:08:24.964Z,4.70
2023-02-08T21:10:53.265Z,7.67
2023-02-08T21:13:21.577Z,4.40
2023-02-08T21:15:49.850Z,5.23
2023-02-08T21:18:19.524Z,4.00
2023-02-08T21:20:47.965Z,5.10
2023-02-08T21:23:16.167Z,4.70
2023-02-08T21:25:44.977Z,5.13
2023-02-08T21:28:13.443Z,4.10
2023-02-08T21:30:42.078Z,5.30
2023-02-08T21:33:10.493Z,3.80
2023-02-08T21:35:40.409Z,4.93
2023-02-08T21:38:08.670Z,4.77
2023-02-08T21:40:37.834Z,4.00
2023-02-08T21:43:06.083Z,4.13
2023-02-08T21:45:35.051Z,3.90
2023-02-08T21:48:03.333Z,3.97
2023-02-08T21:50:49.266Z,4.53
2023-02-08T21:53:37.492Z,5.10
2023-02-08T21:56:05.989Z,5.00
2023-02-08T21:58:34.186Z,5.20
2023-02-08T22:01:02.452Z,6.27
2023-02-08T22:03:34.484Z,4.17
2023-02-08T22:06:20.398Z,5.00
2023-02-08T22:08:50.255Z,3.33
2023-02-08T22:11:26.635Z,5.33
2023-02-08T22:13:55.020Z,5.77
2023-02-08T22:16:23.444Z,5.50
2023-02-08T22:18:51.816Z,5.30
2023-02-08T22:21:20.111Z,5.13
2023-02-08T22:23:49.717Z,5.80
2023-02-08T22:26:17.992Z,5.50
2023-02-08T22:28:46.262Z,5.37
2023-02-08T22:31:15.206Z,6.50
2023-02-08T22:33:43.977Z,6.10
2023-02-08T22:36:12.908Z,5.30
2023-02-08T22:38:41.191Z,5.87
2023-02-08T22:41:14.111Z,6.33
2023-02-08T22:43:42.461Z,5.33
2023-02-08T22:46:10.917Z,5.70
2023-02-08T22:48:39.454Z,5.17
2023-02-08T22:51:08.515Z,6.30
2023-02-08T22:53:36.929Z,5.17
2023-02-08T22:56:05.459Z,6.67
2023-02-08T22:58:35.041Z,7.30
2023-02-08T23:01:03.285Z,6.33
2023-02-08T23:03:31.608Z,5.63
2023-02-08T23:05:59.944Z,7.50
2023-02-08T23:08:28.235Z,7.50
2023-02-08T23:11:00.466Z,6.90
2023-02-08T23:13:28.780Z,7.73
2023-02-08T23:15:58.707Z,7.50
2023-02-08T23:18:27.058Z,7.13
2023-02-08T23:20:55.448Z,7.60
2023-02-08T23:23:23.886Z,7.80
2023-02-08T23:25:52.139Z,7.73
2023-02-08T23:28:20.526Z,9.37
2023-02-08T23:30:48.869Z,7.70
2023-02-08T23:33:18.632Z,6.30
2023-02-08T23:35:46.846Z,6.20
2023-02-08T23:38:15.104Z,5.80
2023-02-08T23:40:44.141Z,6.63
2023-02-08T23:43:12.513Z,5.53
2023-02-08T23:45:40.734Z,5.67
2023-02-08T23:48:08.986Z,6.40
2023-02-08T23:50:38.508Z,5.40
2023-02-08T23:53:06.813Z,5.00
2023-02-08T23:55:35.052Z,5.60
2023-02-08T23:58:03.301Z,4.33
